Time;durP1;ratioP1;P1;durP2;ratioP2;P2;SDS_P1;SDS_P2;PMS_P1;PMS_P2;Temp;Humidity;BMP_temperature;BMP_pressure;BME280_temperature;BME280_humidity;BME280_pressure;Samples;Min_cycle;Max_cycle;Signal;HPM_P1;HPM_P2
2021/08/10 00:01:25;;;;;;;5.60;5.00;;;;;;;21.93;100.00;99238.52;1696700;83;21072;-72
2021/08/10 00:03:55;;;;;;;10.75;4.70;;;;;;;21.91;100.00;99237.73;1696340;83;21419;-72
2021/08/10 00:06:23;;;;;;;4.62;4.12;;;;;;;21.90;100.00;99244.92;1697106;83;21065;-71
2021/08/10 00:08:53;;;;;;;4.87;4.20;;;;;;;21.90;100.00;99246.73;1695070;84;21459;-72
2021/08/10 00:11:22;;;;;;;5.92;4.42;;;;;;;21.89;100.00;99244.52;1696567;83;21243;-71
2021/08/10 00:13:49;;;;;;;5.25;4.75;;;;;;;21.87;100.00;99249.10;1696187;83;21046;-72
2021/08/10 00:16:18;;;;;;;4.62;4.22;;;;;;;21.86;100.00;99247.84;1696859;82;20923;-69
2021/08/10 00:18:48;;;;;;;5.03;4.17;;;;;;;21.84;100.00;99248.39;1696582;83;21681;-70
2021/08/10 00:21:18;;;;;;;5.28;4.60;;;;;;;21.82;100.00;99244.91;1696716;83;21450;-70
2021/08/10 00:23:48;;;;;;;5.20;4.37;;;;;;;21.82;100.00;99249.81;1697051;83;21445;-69
2021/08/10 00:26:19;;;;;;;6.08;4.78;;;;;;;21.82;100.00;99247.13;1697302;83;21505;-70
2021/08/10 00:28:49;;;;;;;5.05;4.45;;;;;;;21.80;100.00;99245.46;1696922;83;20950;-70
2021/08/10 00:31:21;;;;;;;6.10;4.87;;;;;;;21.78;100.00;99248.70;1696241;83;21469;-70
2021/08/10 00:33:53;;;;;;;6.62;4.70;;;;;;;21.77;100.00;99245.62;1687407;83;21055;-70
2021/08/10 00:36:23;;;;;;;7.78;4.35;;;;;;;21.75;100.00;99240.77;1694447;83;21053;-70
2021/08/10 00:38:52;;;;;;;4.95;4.12;;;;;;;21.75;100.00;99244.31;1695728;83;21533;-70
2021/08/10 00:41:26;;;;;;;6.33;4.58;;;;;;;21.77;100.00;99250.52;1697222;83;21161;-70
2021/08/10 00:43:59;;;;;;;6.78;5.05;;;;;;;21.74;100.00;99247.08;1695063;84;21517;-70
2021/08/10 00:46:36;;;;;;;7.97;5.30;;;;;;;21.71;100.00;99243.20;1695973;83;21169;-70
2021/08/10 00:49:17;;;;;;;5.10;4.40;;;;;;;21.68;100.00;99245.09;1681644;84;20986;-70
2021/08/10 00:51:46;;;;;;;5.03;4.42;;;;;;;21.66;100.00;99249.67;1696491;83;21463;-70
2021/08/10 00:54:19;;;;;;;5.20;4.20;;;;;;;21.67;100.00;99243.83;1697215;83;21469;-70
2021/08/10 00:57:01;;;;;;;5.00;4.58;;;;;;;21.65;100.00;99245.72;1696595;83;21038;-70
2021/08/10 00:59:31;;;;;;;6.62;4.30;;;;;;;21.62;100.00;99249.43;1684138;82;21582;-70
2021/08/10 01:02:04;;;;;;;4.72;4.30;;;;;;;21.60;100.00;99247.30;1692673;83;21595;-70
2021/08/10 01:04:35;;;;;;;4.60;4.20;;;;;;;21.59;100.00;99239.31;1649408;85;21542;-70
2021/08/10 01:07:31;;;;;;;8.63;4.65;;;;;;;21.59;100.00;99236.16;1652941;84;21422;-70
2021/08/10 01:10:30;;;;;;;6.90;4.92;;;;;;;21.56;100.00;99235.45;1638095;86;21532;-69
2021/08/10 01:13:22;;;;;;;5.45;4.53;;;;;;;21.53;100.00;99238.28;1601191;88;21192;-70
2021/08/10 01:16:18;;;;;;;5.37;4.10;;;;;;;21.49;100.00;99240.25;1637239;86;21074;-69
2021/08/10 01:19:10;;;;;;;6.03;4.45;;;;;;;21.46;100.00;99244.42;1635054;86;20987;-70
2021/08/10 01:21:39;;;;;;;6.05;4.75;;;;;;;21.46;100.00;99240.87;1612433;86;21973;-70
2021/08/10 01:24:36;;;;;;;6.17;4.12;;;;;;;21.43;100.00;99243.23;1663735;85;21472;-70
2021/08/10 01:27:34;;;;;;;7.03;4.85;;;;;;;21.41;100.00;99250.95;1651646;85;21427;-70
2021/08/10 01:30:14;;;;;;;6.05;4.83;;;;;;;21.37;100.00;99242.19;1654999;86;21375;-71
2021/08/10 01:32:47;;;;;;;5.75;4.47;;;;;;;21.33;100.00;99233.42;1645755;86;21633;-70
2021/08/10 01:35:19;;;;;;;6.92;4.50;;;;;;;21.34;100.00;99243.67;1655485;86;21485;-70
2021/08/10 01:37:52;;;;;;;8.10;5.03;;;;;;;21.32;100.00;99231.68;1656314;86;20968;-70
2021/08/10 01:40:24;;;;;;;7.40;4.78;;;;;;;21.30;100.00;99223.30;1653923;86;21589;-70
2021/08/10 01:42:57;;;;;;;5.10;4.70;;;;;;;21.27;100.00;99224.30;1612283;86;20963;-70
2021/08/10 01:45:28;;;;;;;5.47;4.58;;;;;;;21.25;100.00;99224.84;1641729;85;21131;-70
2021/08/10 01:48:03;;;;;;;5.85;5.17;;;;;;;21.26;100.00;99233.28;1641594;86;21552;-70
2021/08/10 01:50:36;;;;;;;6.75;4.83;;;;;;;21.23;100.00;99229.41;1654436;85;20911;-70
2021/08/10 01:53:12;;;;;;;6.28;5.22;;;;;;;21.21;100.00;99233.95;1652173;84;21505;-69
2021/08/10 01:55:42;;;;;;;5.17;4.53;;;;;;;21.18;100.00;99237.25;1653084;84;21578;-70
2021/08/10 01:58:26;;;;;;;4.67;4.15;;;;;;;21.15;100.00;99238.27;1630080;86;21581;-70
2021/08/10 02:00:57;;;;;;;5.62;5.00;;;;;;;21.14;100.00;99235.19;1696440;83;20955;-70
2021/08/10 02:03:27;;;;;;;5.30;4.85;;;;;;;21.12;100.00;99226.81;1696292;83;21537;-71
2021/08/10 02:06:01;;;;;;;6.03;5.15;;;;;;;21.08;100.00;99230.11;1694163;84;21986;-70
2021/08/10 02:08:39;;;;;;;7.08;5.20;;;;;;;21.01;100.00;99234.90;1686442;83;21513;-70
2021/08/10 02:11:11;;;;;;;5.70;5.00;;;;;;;20.97;100.00;99229.28;1695704;83;21050;-70
2021/08/10 02:13:42;;;;;;;6.58;5.20;;;;;;;20.96;100.00;99232.03;1695538;83;21584;-70
2021/08/10 02:16:16;;;;;;;6.15;5.40;;;;;;;20.92;100.00;99235.80;1695722;84;21502;-70
2021/08/10 02:18:55;;;;;;;6.35;5.78;;;;;;;20.88;100.00;99234.20;1696254;84;21549;-70
2021/08/10 02:21:38;;;;;;;5.58;5.08;;;;;;;20.83;100.00;99233.55;1695196;84;20943;-70
2021/08/10 02:24:10;;;;;;;10.55;5.05;;;;;;;20.78;100.00;99237.75;1695246;83;21462;-70
2021/08/10 02:26:48;;;;;;;7.78;5.60;;;;;;;20.77;100.00;99234.67;1696235;83;21533;-70
2021/08/10 02:29:21;;;;;;;6.47;5.40;;;;;;;20.73;100.00;99233.08;1694746;83;20986;-70
2021/08/10 02:31:50;;;;;;;6.12;5.15;;;;;;;20.67;100.00;99231.55;1663000;84;21169;-70
2021/08/10 02:34:21;;;;;;;7.75;5.40;;;;;;;20.64;100.00;99232.16;1662568;86;21542;-68
2021/08/10 02:36:56;;;;;;;6.20;4.85;;;;;;;20.61;100.00;99230.48;1668110;84;21035;-68
2021/08/10 02:39:25;;;;;;;8.23;5.80;;;;;;;20.60;100.00;99235.92;1695971;83;21027;-68
2021/08/10 02:41:55;;;;;;;6.03;5.40;;;;;;;20.58;100.00;99231.97;1694289;84;20959;-68
2021/08/10 02:44:24;;;;;;;7.70;5.40;;;;;;;20.57;100.00;99233.38;1666573;84;21255;-68
2021/08/10 02:46:53;;;;;;;8.63;5.83;;;;;;;20.51;100.00;99226.95;1669007;84;21007;-68
2021/08/10 02:49:22;;;;;;;7.40;5.47;;;;;;;20.48;100.00;99220.40;1695666;84;20998;-67
2021/08/10 02:51:51;;;;;;;6.08;5.55;;;;;;;20.47;100.00;99226.23;1693391;83;21522;-67
2021/08/10 02:54:20;;;;;;;6.42;5.40;;;;;;;20.48;100.00;99225.29;1669072;83;21054;-67
2021/08/10 02:56:58;;;;;;;6.05;5.45;;;;;;;20.47;100.00;99222.21;1668177;84;21151;-67
2021/08/10 02:59:37;;;;;;;5.72;5.20;;;;;;;20.43;100.00;99215.25;1663238;85;20997;-67
2021/08/10 03:02:24;;;;;;;5.62;5.03;;;;;;;20.39;100.00;99222.55;1696518;83;21021;-68
2021/08/10 03:04:57;;;;;;;5.45;4.83;;;;;;;20.40;100.00;99228.78;1687487;84;21526;-68
2021/08/10 03:07:29;;;;;;;8.45;5.58;;;;;;;20.37;100.00;99223.53;1660779;84;21506;-66
2021/08/10 03:10:03;;;;;;;7.05;5.40;;;;;;;20.34;100.00;99219.17;1664623;84;21171;-67
2021/08/10 03:12:34;;;;;;;8.38;5.70;;;;;;;20.33;100.00;99223.23;1686429;83;21443;-68
2021/08/10 03:15:06;;;;;;;5.70;5.05;;;;;;;20.32;100.00;99229.06;1696406;83;21053;-69
2021/08/10 03:17:38;;;;;;;5.37;4.80;;;;;;;20.31;100.00;99231.81;1684791;84;20887;-64
2021/08/10 03:20:09;;;;;;;9.40;6.28;;;;;;;20.30;100.00;99231.41;1664710;84;21081;-70
2021/08/10 03:22:38;;;;;;;5.95;5.35;;;;;;;20.28;100.00;99230.60;1687617;83;21119;-69
2021/08/10 03:25:07;;;;;;;6.03;5.42;;;;;;;20.26;100.00;99233.35;1688677;83;20899;-70
2021/08/10 03:27:35;;;;;;;7.08;5.90;;;;;;;20.26;100.00;99236.03;1689461;83;20964;-69
2021/08/10 03:30:05;;;;;;;7.78;5.30;;;;;;;20.28;100.00;99235.49;1660426;85;20859;-70
2021/08/10 03:32:34;;;;;;;7.60;5.78;;;;;;;20.28;100.00;99235.49;1677401;83;21501;-69
2021/08/10 03:35:04;;;;;;;6.22;5.35;;;;;;;20.29;100.00;99238.58;1688765;83;21134;-70
2021/08/10 03:37:33;;;;;;;9.25;5.25;;;;;;;20.31;100.00;99239.84;1682710;83;20915;-69
2021/08/10 03:40:05;;;;;;;5.50;5.00;;;;;;;20.33;100.00;99231.27;1686585;83;21462;-69
2021/08/10 03:42:35;;;;;;;8.90;5.65;;;;;;;20.35;100.00;99232.97;1678495;83;21529;-70
2021/08/10 03:45:04;;;;;;;8.28;5.40;;;;;;;20.37;100.00;99227.08;1688625;85;21587;-69
2021/08/10 03:47:33;;;;;;;8.13;5.30;;;;;;;20.39;100.00;99230.59;1686880;83;21557;-69
2021/08/10 03:50:01;;;;;;;5.72;5.03;;;;;;;20.42;100.00;99233.14;1688860;83;20938;-67
2021/08/10 03:52:30;;;;;;;5.15;4.35;;;;;;;20.45;100.00;99227.23;1688982;83;20931;-69
2021/08/10 03:55:00;;;;;;;6.22;4.97;;;;;;;20.49;100.00;99230.18;1689109;83;21622;-69
2021/08/10 03:57:30;;;;;;;5.03;4.60;;;;;;;20.52;100.00;99232.25;1693132;83;21540;-70
2021/08/10 04:00:03;;;;;;;5.53;4.50;;;;;;;20.54;100.00;99226.82;1670386;83;21207;-69
2021/08/10 04:02:37;;;;;;;7.37;4.50;;;;;;;20.53;100.00;99229.97;1663648;84;21525;-69
2021/08/10 04:05:10;;;;;;;6.75;4.40;;;;;;;20.55;100.00;99236.59;1632809;88;21461;-70
2021/08/10 04:07:41;;;;;;;4.97;4.30;;;;;;;20.58;100.00;99237.33;1666458;85;21565;-70
2021/08/10 04:10:13;;;;;;;5.40;4.72;;;;;;;20.59;100.00;99229.69;1640392;86;21005;-70
2021/08/10 04:12:44;;;;;;;5.50;4.25;;;;;;;20.59;100.00;99229.69;1663458;85;21501;-69
2021/08/10 04:15:14;;;;;;;4.87;4.28;;;;;;;20.60;100.00;99227.88;1632622;86;21509;-68
2021/08/10 04:17:44;;;;;;;7.05;4.47;;;;;;;20.60;100.00;99240.81;1665347;85;21497;-67
2021/08/10 04:20:18;;;;;;;5.40;4.35;;;;;;;20.66;100.00;99236.98;1665495;86;21504;-70
2021/08/10 04:22:52;;;;;;;7.25;4.33;;;;;;;20.69;100.00;99229.67;1662599;84;21002;-68
2021/08/10 04:25:21;;;;;;;5.37;4.15;;;;;;;20.74;100.00;99238.84;1703368;84;21139;-67
2021/08/10 04:27:53;;;;;;;5.50;4.20;;;;;;;20.75;100.00;99232.53;1678270;85;21003;-69
2021/08/10 04:30:25;;;;;;;9.15;3.95;;;;;;;20.78;100.00;99232.39;1674090;85;20951;-70
2021/08/10 04:32:55;;;;;;;5.55;4.08;;;;;;;20.84;100.00;99236.63;1664820;84;21679;-70
2021/08/10 04:35:27;;;;;;;4.72;4.12;;;;;;;20.85;100.00;99231.20;1698481;84;21805;-70
2021/08/10 04:37:56;;;;;;;5.37;4.17;;;;;;;20.87;100.00;99226.64;1702355;83;21158;-70
2021/08/10 04:40:27;;;;;;;4.08;3.67;;;;;;;20.89;100.00;99224.75;1676599;85;20857;-70
2021/08/10 04:43:09;;;;;;;3.58;3.27;;;;;;;20.92;100.00;99221.92;1646437;85;21493;-70
2021/08/10 04:45:41;;;;;;;4.70;4.20;;;;;;;20.97;100.00;99221.70;1671714;85;20931;-70
2021/08/10 04:48:11;;;;;;;3.87;3.47;;;;;;;21.00;100.00;99211.70;1668494;84;20887;-70
2021/08/10 04:50:41;;;;;;;6.08;4.10;;;;;;;21.00;100.00;99209.49;1633859;86;21146;-70
2021/08/10 04:53:13;;;;;;;5.50;3.90;;;;;;;20.99;100.00;99209.09;1629495;87;20916;-70
2021/08/10 04:55:45;;;;;;;4.53;3.43;;;;;;;20.99;100.00;99211.78;1637894;86;20979;-71
2021/08/10 04:58:16;;;;;;;4.03;3.47;;;;;;;21.00;100.00;99210.36;1637620;86;21028;-70
2021/08/10 05:00:48;;;;;;;3.90;3.42;;;;;;;21.04;100.00;99207.94;1643503;86;21444;-70
2021/08/10 05:03:17;;;;;;;3.85;3.55;;;;;;;21.09;100.00;99201.01;1651339;86;21545;-70
2021/08/10 05:05:48;;;;;;;3.45;3.15;;;;;;;21.13;100.00;99207.96;1651108;86;21440;-71
2021/08/10 05:08:18;;;;;;;4.65;3.30;;;;;;;21.16;100.00;99204.27;1655336;86;20965;-70
2021/08/10 05:10:47;;;;;;;3.50;3.20;;;;;;;21.20;100.00;99200.02;1651161;86;20942;-71
2021/08/10 05:13:18;;;;;;;5.70;3.15;;;;;;;21.25;100.00;99196.67;1651301;86;21424;-70
2021/08/10 05:15:52;;;;;;;3.17;2.87;;;;;;;21.33;100.00;99196.33;1651167;86;21163;-71
2021/08/10 05:18:24;;;;;;;3.25;2.95;;;;;;;21.40;100.00;99194.20;1651240;86;20965;-70
2021/08/10 05:20:53;;;;;;;3.62;3.33;;;;;;;21.43;100.00;99196.73;1651749;86;20870;-70
2021/08/10 05:23:22;;;;;;;4.65;3.37;;;;;;;21.49;100.00;99189.72;1654640;85;21423;-70
2021/08/10 05:25:51;;;;;;;4.42;3.20;;;;;;;21.53;100.00;99198.02;1652397;86;21480;-70
2021/08/10 05:28:18;;;;;;;3.58;2.98;;;;;;;21.57;100.00;99187.53;1651295;86;21163;-69
2021/08/10 05:30:47;;;;;;;3.30;3.00;;;;;;;21.64;100.00;99190.30;1626856;86;20935;-70
2021/08/10 05:33:15;;;;;;;4.85;3.45;;;;;;;21.74;100.00;99193.37;1651385;86;20969;-70
2021/08/10 05:35:44;;;;;;;3.02;2.72;;;;;;;21.83;100.00;99201.00;1651414;86;21464;-69
2021/08/10 05:38:13;;;;;;;3.62;3.12;;;;;;;21.89;100.00;99200.21;1651379;86;20914;-70
2021/08/10 05:40:42;;;;;;;3.42;3.10;;;;;;;21.95;100.00;99199.02;1651264;86;21159;-69
2021/08/10 05:43:10;;;;;;;3.50;3.20;;;;;;;22.00;100.00;99199.18;1651258;86;20949;-70
2021/08/10 05:45:39;;;;;;;4.83;3.00;;;;;;;22.05;100.00;99196.77;1655423;86;20921;-70
2021/08/10 05:48:10;;;;;;;4.30;2.67;;;;;;;22.12;100.00;99199.05;1657802;86;21155;-70
2021/08/10 05:50:38;;;;;;;4.42;3.20;;;;;;;22.21;100.00;99197.22;1657893;86;21622;-70
2021/08/10 05:53:06;;;;;;;5.60;2.80;;;;;;;22.31;100.00;99194.95;1631484;85;21103;-70
2021/08/10 05:55:35;;;;;;;2.98;2.77;;;;;;;22.39;100.00;99196.75;1696855;83;20864;-70
2021/08/10 05:58:06;;;;;;;3.55;3.25;;;;;;;22.46;100.00;99195.47;1694365;83;20947;-70
2021/08/10 06:00:33;;;;;;;3.33;2.80;;;;;;;22.52;100.00;99187.07;1696327;83;21422;-70
2021/08/10 06:03:04;;;;;;;3.72;2.85;;;;;;;22.57;100.00;99190.38;1660906;85;20919;-71
2021/08/10 06:05:32;;;;;;;6.67;3.22;;;;;;;22.61;100.00;99187.91;1673527;84;21744;-70
2021/08/10 06:08:00;;;;;;;3.25;2.95;;;;;;;22.67;100.00;99179.98;1673254;84;20946;-70
2021/08/10 06:10:31;;;;;;;4.90;3.02;;;;;;;22.74;100.00;99180.55;1685493;84;20947;-70
2021/08/10 06:13:01;;;;;;;8.70;3.08;;;;;;;22.83;100.00;99181.41;1698618;83;20962;-70
2021/08/10 06:15:28;;;;;;;3.72;3.08;;;;;;;22.90;100.00;99177.42;1700135;84;20950;-70
2021/08/10 06:17:56;;;;;;;3.62;3.02;;;;;;;22.97;100.00;99181.52;1699980;84;21158;-70
2021/08/10 06:20:23;;;;;;;7.30;3.42;;;;;;;23.04;100.00;99172.61;1701088;83;20883;-70
2021/08/10 06:22:51;;;;;;;3.10;2.70;;;;;;;23.09;100.00;99179.95;1695591;83;20903;-70
2021/08/10 06:25:19;;;;;;;4.28;2.75;;;;;;;23.14;100.00;99178.73;1697243;82;20964;-70
2021/08/10 06:27:47;;;;;;;9.30;3.47;;;;;;;23.18;100.00;99180.33;1700860;83;20905;-69
2021/08/10 06:30:15;;;;;;;3.62;2.67;;;;;;;23.25;100.00;99179.50;1700759;83;21141;-70
2021/08/10 06:32:43;;;;;;;3.27;2.80;;;;;;;23.31;100.00;99171.06;1667192;84;20997;-70
2021/08/10 06:35:12;;;;;;;4.45;2.80;;;;;;;23.36;100.00;99170.80;1699042;84;20959;-70
2021/08/10 06:37:39;;;;;;;3.10;2.80;;;;;;;23.40;100.00;99174.57;1701665;83;20910;-69
2021/08/10 06:40:07;;;;;;;4.30;2.50;;;;;;;23.46;100.00;99172.87;1667173;85;20919;-69
2021/08/10 06:42:35;;;;;;;3.92;3.08;;;;;;;23.52;100.00;99175.20;1700312;82;21052;-70
2021/08/10 06:45:05;;;;;;;7.83;3.00;;;;;;;23.60;100.00;99169.87;1699153;82;20867;-69
2021/08/10 06:47:32;;;;;;;4.33;3.00;;;;;;;23.68;100.00;99169.84;1695551;83;20879;-75
2021/08/10 06:50:01;;;;;;;6.60;2.70;;;;;;;23.77;100.00;99167.95;1697754;83;20950;-75
2021/08/10 06:52:30;;;;;;;4.20;2.83;;;;;;;23.90;100.00;99169.42;1699928;84;20922;-74
2021/08/10 06:54:59;;;;;;;2.98;2.60;;;;;;;24.03;100.00;99174.94;1697130;83;21803;-75
2021/08/10 06:57:27;;;;;;;5.83;2.90;;;;;;;24.09;100.00;99172.73;1695560;84;20923;-75
2021/08/10 06:59:55;;;;;;;5.35;3.20;;;;;;;24.15;100.00;99164.31;1696727;84;21453;-75
2021/08/10 07:02:22;;;;;;;2.85;2.50;;;;;;;24.26;100.00;99168.17;1694607;84;20921;-75
2021/08/10 07:04:50;;;;;;;2.95;2.65;;;;;;;24.34;100.00;99168.11;1695829;84;20903;-75
2021/08/10 07:07:19;;;;;;;6.12;2.70;;;;;;;24.44;100.00;99164.36;1687790;83;21122;-75
2021/08/10 07:09:48;;;;;;;2.67;2.47;;;;;;;24.52;100.00;99163.88;1698541;83;20906;-75
2021/08/10 07:12:15;;;;;;;8.20;2.83;;;;;;;24.53;100.00;99156.17;1666293;84;20962;-75
2021/08/10 07:14:45;;;;;;;4.92;2.65;;;;;;;24.57;100.00;99160.41;1666126;85;20902;-75
2021/08/10 07:17:13;;;;;;;2.90;2.60;;;;;;;24.63;100.00;99160.05;1637995;86;21450;-76
2021/08/10 07:19:40;;;;;;;3.25;2.83;;;;;;;24.70;100.00;99160.05;1690321;83;21111;-76
2021/08/10 07:22:11;;;;;;;2.80;2.60;;;;;;;24.74;100.00;99151.66;1689641;83;21488;-75
2021/08/10 07:24:39;;;;;;;3.15;2.20;;;;;;;24.80;100.00;99155.31;1689759;83;21453;-75
2021/08/10 07:27:08;;;;;;;3.00;2.62;;;;;;;24.86;100.00;99152.70;1688905;83;20976;-75
2021/08/10 07:29:36;;;;;;;3.12;2.60;;;;;;;24.89;100.00;99143.06;1679589;84;21463;-75
2021/08/10 07:32:05;;;;;;;2.87;2.67;;;;;;;24.94;100.00;99150.86;1690503;83;22008;-76
2021/08/10 07:34:34;;;;;;;4.10;2.80;;;;;;;24.96;100.00;99144.39;1723071;81;21405;-76
2021/08/10 07:37:03;;;;;;;2.60;2.33;;;;;;;25.02;100.00;99144.51;1727605;81;20957;-74
2021/08/10 07:39:33;;;;;;;2.50;2.30;;;;;;;25.09;100.00;99139.13;1694870;83;20920;-67
2021/08/10 07:42:01;;;;;;;3.12;2.67;;;;;;;25.17;100.00;99144.02;1694413;84;20933;-67
2021/08/10 07:44:32;;;;;;;2.95;2.42;;;;;;;25.25;100.00;99145.73;1696334;83;21899;-67
2021/08/10 07:47:00;;;;;;;4.22;2.58;;;;;;;25.36;100.00;99141.83;1723508;81;20947;-68
2021/08/10 07:49:29;;;;;;;2.72;2.47;;;;;;;25.45;100.00;99141.21;1753050;81;21456;-67
2021/08/10 07:51:59;;;;;;;3.47;2.55;;;;;;;25.54;100.00;99145.13;1753240;81;21419;-67
2021/08/10 07:54:28;;;;;;;4.85;2.72;;;;;;;25.60;100.00;99142.91;1744286;81;20962;-67
2021/08/10 07:56:59;;;;;;;4.47;2.60;;;;;;;25.71;100.00;99140.37;1700121;83;21145;-67
2021/08/10 07:59:28;;;;;;;3.95;2.60;;;;;;;25.82;100.00;99141.47;1711018;81;20925;-66
2021/08/10 08:01:59;;;;;;;2.80;2.37;;;;;;;25.89;100.00;99136.03;1719098;81;20900;-67
2021/08/10 08:04:34;;;;;;;3.02;2.72;;;;;;;25.99;100.00;99134.42;1700788;83;20898;-67
2021/08/10 08:07:11;;;;;;;3.22;2.45;;;;;;;26.10;100.00;99144.02;1698210;83;21416;-68
2021/08/10 08:09:42;;;;;;;3.17;2.60;;;;;;;26.22;100.00;99140.95;1675543;84;20902;-67
2021/08/10 08:12:13;;;;;;;4.70;2.55;;;;;;;26.34;100.00;99140.11;1675767;84;20922;-67
2021/08/10 08:14:45;;;;;;;3.00;2.70;;;;;;;26.44;100.00;99134.91;1696453;84;21445;-67
2021/08/10 08:17:13;;;;;;;3.87;2.72;;;;;;;26.53;100.00;99140.56;1705042;81;20910;-74
2021/08/10 08:19:43;;;;;;;2.40;2.20;;;;;;;26.61;100.00;99135.47;1729246;82;21411;-74
2021/08/10 08:22:13;;;;;;;7.95;2.40;;;;;;;26.68;100.00;99134.53;1753419;81;22783;-74
2021/08/10 08:24:41;;;;;;;3.20;2.50;;;;;;;26.74;100.00;99131.38;1700350;82;20942;-74
2021/08/10 08:27:11;;;;;;;3.30;2.40;;;;;;;26.83;100.00;99125.30;1698275;83;20946;-74
2021/08/10 08:29:40;;;;;;;2.83;2.60;;;;;;;26.94;100.00;99130.78;1697879;83;21464;-75
2021/08/10 08:32:08;;;;;;;4.83;2.52;;;;;;;27.05;100.00;99131.91;1698332;84;20879;-76
2021/08/10 08:34:36;;;;;;;3.25;2.25;;;;;;;27.12;100.00;99130.47;1675955;83;21165;-75
2021/08/10 08:37:05;;;;;;;2.80;2.40;;;;;;;27.19;100.00;99125.84;1727755;81;20894;-75
2021/08/10 08:39:35;;;;;;;4.25;2.50;;;;;;;27.32;100.00;99131.69;1679469;83;20970;-75
2021/08/10 08:42:08;;;;;;;5.67;2.55;;;;;;;27.41;100.00;99121.02;1743767;81;20944;-76
2021/08/10 08:44:36;;;;;;;3.17;2.40;;;;;;;27.47;100.00;99125.14;1717876;81;20940;-75
2021/08/10 08:47:09;;;;;;;3.87;2.98;;;;;;;27.48;100.00;99121.45;1735571;82;21947;-75
2021/08/10 08:49:38;;;;;;;3.58;2.62;;;;;;;27.54;100.00;99128.62;1708113;81;20938;-75
2021/08/10 08:52:12;;;;;;;3.87;2.22;;;;;;;27.63;100.00;99125.73;1714971;81;20963;-70
2021/08/10 08:54:41;;;;;;;2.87;2.60;;;;;;;27.74;100.00;99131.68;1686721;81;20909;-70
2021/08/10 08:57:11;;;;;;;5.53;2.65;;;;;;;27.83;100.00;99126.91;1727179;81;20967;-70
2021/08/10 08:59:42;;;;;;;3.25;2.92;;;;;;;27.91;100.00;99125.85;1697523;82;21094;-68
2021/08/10 09:02:16;;;;;;;4.92;2.40;;;;;;;27.99;100.00;99125.25;1684667;84;20931;-68
2021/08/10 09:04:46;;;;;;;2.62;2.42;;;;;;;28.06;100.00;99127.36;1687456;84;21397;-69
2021/08/10 09:07:16;;;;;;;2.60;2.40;;;;;;;28.14;100.00;99120.84;1687664;84;20896;-68
2021/08/10 09:09:46;;;;;;;2.70;2.45;;;;;;;28.19;100.00;99118.63;1687566;85;20951;-67
2021/08/10 09:12:20;;;;;;;3.05;2.70;;;;;;;28.27;100.00;99120.77;1683983;83;21096;-67
2021/08/10 09:14:52;;;;;;;4.92;2.80;;;;;;;28.35;100.00;99123.73;1679350;84;20879;-68
2021/08/10 09:17:23;;;;;;;5.87;2.60;;;;;;;28.39;100.00;99122.54;1673815;83;21406;-68
2021/08/10 09:19:58;;;;;;;4.10;2.35;;;;;;;28.44;100.00;99112.19;1673769;83;20915;-69
2021/08/10 09:22:28;;;;;;;2.75;2.50;;;;;;;28.50;100.00;99113.05;1698033;82;20956;-67
2021/08/10 09:25:02;;;;;;;3.47;2.33;;;;;;;28.60;100.00;99114.52;1697680;82;21060;-67
2021/08/10 09:27:40;;;;;;;2.52;2.33;;;;;;;28.68;100.00;99111.19;1676026;84;20904;-68
2021/08/10 09:30:21;;;;;;;2.70;2.45;;;;;;;28.74;100.00;99104.77;1699521;82;20888;-68
2021/08/10 09:32:57;;;;;;;3.25;2.80;;;;;;;28.86;100.00;99103.45;1728445;80;20978;-69
2021/08/10 09:35:31;;;;;;;7.83;2.62;;;;;;;28.96;100.00;99103.93;1697999;84;20906;-71
2021/08/10 09:38:16;;;;;;;6.67;2.58;;;;;;;29.06;100.00;99101.31;1698211;84;21512;-69
2021/08/10 09:40:47;;;;;;;3.02;2.45;;;;;;;29.15;100.00;99094.63;1675226;83;21448;-70
2021/08/10 09:43:28;;;;;;;3.60;2.47;;;;;;;29.27;100.00;99090.51;1666483;84;20955;-71
2021/08/10 09:46:12;;;;;;;3.08;2.60;;;;;;;29.34;100.00;99091.25;1666611;83;20890;-71
2021/08/10 09:48:54;;;;;;;3.20;2.50;;;;;;;29.42;100.00;99087.89;1637961;86;20961;-71
2021/08/10 09:51:27;;;;;;;3.43;2.40;;;;;;;29.52;100.00;99079.84;1639318;86;21117;-71
2021/08/10 09:54:12;;;;;;;5.30;2.30;;;;;;;29.63;100.00;99081.16;1611655;87;20962;-71
2021/08/10 09:57:01;;;;;;;4.97;2.50;;;;;;;29.67;100.00;99082.61;1661654;86;20941;-71
2021/08/10 09:59:41;;;;;;;2.47;2.25;;;;;;;29.68;100.00;99087.92;1662471;86;20946;-71
2021/08/10 10:02:22;;;;;;;3.60;2.50;;;;;;;29.73;100.00;99078.01;1639347;86;21488;-70
2021/08/10 10:04:55;;;;;;;2.87;2.17;;;;;;;29.81;100.00;99081.45;1660166;84;21964;-71
2021/08/10 10:07:24;;;;;;;4.50;2.15;;;;;;;29.91;100.00;99079.16;1673010;84;20910;-70
2021/08/10 10:10:02;;;;;;;2.33;2.12;;;;;;;29.98;100.00;99079.49;1666227;85;21027;-70
2021/08/10 10:12:33;;;;;;;5.03;2.60;;;;;;;30.05;100.00;99088.38;1668075;85;20936;-68
2021/08/10 10:15:01;;;;;;;3.02;2.20;;;;;;;30.14;100.00;99079.05;1667425;83;21558;-69
2021/08/10 10:17:33;;;;;;;11.20;2.62;;;;;;;30.23;100.00;99083.17;1692327;83;21624;-70
2021/08/10 10:20:04;;;;;;;5.37;2.40;;;;;;;30.25;100.00;99074.88;1674719;85;21435;-70
2021/08/10 10:22:35;;;;;;;1.92;1.80;;;;;;;30.28;100.00;99071.92;1644311;84;20978;-71
2021/08/10 10:25:08;;;;;;;3.87;2.27;;;;;;;30.27;100.00;99066.97;1669984;84;20966;-71
2021/08/10 10:27:37;;;;;;;10.45;2.40;;;;;;;30.29;100.00;99070.92;1653014;85;20979;-70
2021/08/10 10:30:06;;;;;;;3.27;2.20;;;;;;;30.28;100.00;99070.56;1665748;84;21526;-68
2021/08/10 10:32:34;;;;;;;2.08;1.87;;;;;;;30.29;100.00;99067.70;1656399;86;20994;-70
2021/08/10 10:35:03;;;;;;;3.80;2.00;;;;;;;30.28;100.00;99067.34;1685259;83;21049;-70
2021/08/10 10:37:36;;;;;;;3.05;2.00;;;;;;;30.24;100.00;99060.41;1687460;83;20877;-69
2021/08/10 10:40:06;;;;;;;4.53;2.17;;;;;;;30.26;100.00;99060.27;1679018;83;21073;-70
2021/08/10 10:42:33;;;;;;;2.75;2.20;;;;;;;30.34;100.00;99057.27;1688274;83;21101;-71
2021/08/10 10:45:00;;;;;;;3.52;1.80;;;;;;;30.42;100.00;99049.78;1689646;83;20907;-71
2021/08/10 10:47:33;;;;;;;4.83;2.30;;;;;;;30.38;100.00;99049.19;1685343;84;21462;-70
2021/08/10 10:50:05;;;;;;;2.10;1.65;;;;;;;30.30;100.00;99057.67;1688124;83;21443;-71
2021/08/10 10:52:34;;;;;;;4.08;1.85;;;;;;;30.24;100.00;99053.61;1689378;83;20954;-69
2021/08/10 10:55:04;;;;;;;10.05;1.92;;;;;;;30.28;100.00;99054.23;1683554;83;21043;-69
2021/08/10 14:51:29;;;;;;;6.28;1.57;;;;;;;30.80;72.42;98918.38;1786510;80;22782;-70
2021/08/10 14:53:57;;;;;;;2.37;1.42;;;;;;;30.84;71.40;98921.68;1783410;80;21411;-70
2021/08/10 14:56:26;;;;;;;7.80;1.92;;;;;;;30.85;72.84;98920.67;1783476;80;21762;-70
2021/08/10 14:58:54;;;;;;;3.00;1.75;;;;;;;30.81;72.79;98913.30;1783164;80;21493;-70
2021/08/10 15:01:22;;;;;;;4.75;3.90;;;;;;;30.78;71.81;98914.08;1783460;80;21384;-70
2021/08/10 15:03:51;;;;;;;4.70;2.92;;;;;;;30.72;70.97;98919.56;1783338;79;20881;-70
2021/08/10 15:06:19;;;;;;;2.77;1.90;;;;;;;30.65;70.77;98913.83;1783427;80;20913;-66
2021/08/10 15:08:47;;;;;;;2.27;1.67;;;;;;;30.57;69.56;98920.95;1783480;79;21551;-73
2021/08/10 15:11:15;;;;;;;2.87;1.20;;;;;;;30.50;68.93;98917.94;1783316;80;20865;-74
2021/08/10 15:13:44;;;;;;;1.60;1.25;;;;;;;30.42;68.11;98915.05;1783359;79;20870;-73
2021/08/10 15:16:13;;;;;;;4.97;1.50;;;;;;;30.31;68.47;98909.73;1783469;80;21090;-71
2021/08/10 15:18:42;;;;;;;2.87;1.50;;;;;;;30.23;70.48;98913.13;1783333;79;20972;-71
2021/08/10 15:21:10;;;;;;;2.00;1.12;;;;;;;30.15;69.58;98918.90;1775361;80;21165;-71
2021/08/10 15:23:37;;;;;;;2.45;1.45;;;;;;;30.07;69.95;98923.67;1780165;80;21436;-71
2021/08/10 15:26:05;;;;;;;3.25;1.72;;;;;;;29.97;68.25;98920.03;1780646;80;20982;-71
2021/08/10 15:28:35;;;;;;;6.08;1.47;;;;;;;29.85;68.63;98924.70;1780848;80;20942;-71
2021/08/10 15:31:03;;;;;;;4.17;1.45;;;;;;;29.73;69.28;98925.76;1779883;79;20967;-70
2021/08/10 15:33:32;;;;;;;11.03;1.60;;;;;;;29.60;69.89;98925.98;1779391;79;22367;-70
2021/08/10 15:36:02;;;;;;;14.63;1.90;;;;;;;29.52;71.01;98933.09;1781147;80;21387;-71
2021/08/10 15:38:30;;;;;;;1.57;1.47;;;;;;;29.47;74.35;98927.20;1780951;80;20984;-71
2021/08/10 15:40:57;;;;;;;4.05;1.50;;;;;;;29.43;75.20;98930.18;1775232;80;20887;-70